sensor_id;sensor_type;location;lat;lon;timestamp;P1;durP1;ratioP1;P2;durP2;ratioP2
9465;SDS011;4771;48.726;9.006;2023-06-10T00:01:17;5.10;;;4.10;;
9465;SDS011;4771;48.726;9.006;2023-06-10T00:03:44;5.78;;;4.13;;
9465;SDS011;4771;48.726;9.006;2023-06-10T00:06:12;5.85;;;3.75;;
9465;SDS011;4771;48.726;9.006;2023-06-10T00:08:39;5.07;;;4.50;;
9465;SDS011;4771;48.726;9.006;2023-06-10T00:11:06;5.10;;;3.92;;
9465;SDS011;4771;48.726;9.006;2023-06-10T00:13:33;5.57;;;4.20;;
9465;SDS011;4771;48.726;9.006;2023-06-10T00:16:00;4.60;;;4.00;;
9465;SDS011;4771;48.726;9.006;2023-06-10T00:18:28;4.35;;;3.95;;
9465;SDS011;4771;48.726;9.006;2023-06-10T00:20:56;4.65;;;3.88;;
9465;SDS011;4771;48.726;9.006;2023-06-10T00:23:29;6.25;;;4.18;;
9465;SDS011;4771;48.726;9.006;2023-06-10T00:25:57;4.18;;;3.78;;
9465;SDS011;4771;48.726;9.006;2023-06-10T00:28:24;5.78;;;4.10;;
9465;SDS011;4771;48.726;9.006;2023-06-10T00:30:51;5.13;;;4.20;;
9465;SDS011;4771;48.726;9.006;2023-06-10T00:33:18;4.75;;;3.95;;
9465;SDS011;4771;48.726;9.006;2023-06-10T00:35:45;4.50;;;4.05;;
9465;SDS011;4771;48.726;9.006;2023-06-10T00:38:12;7.57;;;4.07;;
9465;SDS011;4771;48.726;9.006;2023-06-10T00:40:41;6.07;;;4.13;;
9465;SDS011;4771;48.726;9.006;2023-06-10T00:43:08;7.45;;;4.20;;
9465;SDS011;4771;48.726;9.006;2023-06-10T00:45:35;5.13;;;4.20;;
9465;SDS011;4771;48.726;9.006;2023-06-10T00:48:02;4.20;;;3.80;;
9465;SDS011;4771;48.726;9.006;2023-06-10T00:50:30;5.65;;;4.25;;
9465;SDS011;4771;48.726;9.006;2023-06-10T00:52:58;4.90;;;4.10;;
9465;SDS011;4771;48.726;9.006;2023-06-10T00:55:25;5.25;;;4.05;;
9465;SDS011;4771;48.726;9.006;2023-06-10T00:57:54;4.15;;;3.75;;
9465;SDS011;4771;48.726;9.006;2023-06-10T01:00:21;5.72;;;4.18;;
9465;SDS011;4771;48.726;9.006;2023-06-10T01:02:48;4.40;;;3.50;;
9465;SDS011;4771;48.726;9.006;2023-06-10T01:05:17;5.70;;;3.63;;
9465;SDS011;4771;48.726;9.006;2023-06-10T01:07:46;4.53;;;3.85;;
9465;SDS011;4771;48.726;9.006;2023-06-10T01:10:19;5.78;;;4.28;;
9465;SDS011;4771;48.726;9.006;2023-06-10T01:12:52;8.50;;;4.32;;
9465;SDS011;4771;48.726;9.006;2023-06-10T01:15:27;5.85;;;3.88;;
9465;SDS011;4771;48.726;9.006;2023-06-10T01:17:56;4.28;;;3.88;;
9465;SDS011;4771;48.726;9.006;2023-06-10T01:20:24;5.47;;;4.82;;
9465;SDS011;4771;48.726;9.006;2023-06-10T01:22:54;5.38;;;4.32;;
9465;SDS011;4771;48.726;9.006;2023-06-10T01:25:21;5.35;;;3.90;;
9465;SDS011;4771;48.726;9.006;2023-06-10T01:27:53;5.47;;;4.10;;
9465;SDS011;4771;48.726;9.006;2023-06-10T01:30:26;4.70;;;4.28;;
9465;SDS011;4771;48.726;9.006;2023-06-10T01:32:58;4.80;;;4.30;;
9465;SDS011;4771;48.726;9.006;2023-06-10T01:35:27;6.07;;;4.80;;
9465;SDS011;4771;48.726;9.006;2023-06-10T01:37:57;5.50;;;3.90;;
9465;SDS011;4771;48.726;9.006;2023-06-10T01:40:27;5.90;;;4.15;;
9465;SDS011;4771;48.726;9.006;2023-06-10T01:42:55;4.95;;;4.45;;
9465;SDS011;4771;48.726;9.006;2023-06-10T01:45:22;4.63;;;4.13;;
9465;SDS011;4771;48.726;9.006;2023-06-10T01:47:49;5.70;;;4.75;;
9465;SDS011;4771;48.726;9.006;2023-06-10T01:50:16;4.45;;;4.05;;
9465;SDS011;4771;48.726;9.006;2023-06-10T01:52:43;5.10;;;4.15;;
9465;SDS011;4771;48.726;9.006;2023-06-10T01:55:11;7.32;;;4.38;;
9465;SDS011;4771;48.726;9.006;2023-06-10T01:57:38;4.40;;;3.90;;
9465;SDS011;4771;48.726;9.006;2023-06-10T02:00:05;4.63;;;4.22;;
9465;SDS011;4771;48.726;9.006;2023-06-10T02:02:33;5.05;;;4.53;;
9465;SDS011;4771;48.726;9.006;2023-06-10T02:05:00;4.95;;;4.28;;
9465;SDS011;4771;48.726;9.006;2023-06-10T02:07:28;5.45;;;4.18;;
9465;SDS011;4771;48.726;9.006;2023-06-10T02:09:55;5.43;;;4.63;;
9465;SDS011;4771;48.726;9.006;2023-06-10T02:12:23;5.18;;;4.40;;
9465;SDS011;4771;48.726;9.006;2023-06-10T02:14:50;6.28;;;4.20;;
9465;SDS011;4771;48.726;9.006;2023-06-10T02:17:17;5.72;;;4.45;;
9465;SDS011;4771;48.726;9.006;2023-06-10T02:19:44;5.95;;;4.85;;
9465;SDS011;4771;48.726;9.006;2023-06-10T02:22:18;5.53;;;4.93;;
9465;SDS011;4771;48.726;9.006;2023-06-10T02:24:46;5.20;;;4.70;;
9465;SDS011;4771;48.726;9.006;2023-06-10T02:27:13;7.28;;;4.47;;
9465;SDS011;4771;48.726;9.006;2023-06-10T02:29:41;4.85;;;4.45;;
9465;SDS011;4771;48.726;9.006;2023-06-10T02:32:08;6.40;;;4.68;;
9465;SDS011;4771;48.726;9.006;2023-06-10T02:34:35;12.18;;;8.98;;
9465;SDS011;4771;48.726;9.006;2023-06-10T02:37:02;25.00;;;18.92;;
9465;SDS011;4771;48.726;9.006;2023-06-10T02:39:29;19.40;;;15.70;;
9465;SDS011;4771;48.726;9.006;2023-06-10T02:41:56;8.18;;;7.30;;
9465;SDS011;4771;48.726;9.006;2023-06-10T02:44:23;6.63;;;5.63;;
9465;SDS011;4771;48.726;9.006;2023-06-10T02:46:51;5.53;;;4.63;;
9465;SDS011;4771;48.726;9.006;2023-06-10T02:49:18;5.38;;;4.88;;
9465;SDS011;4771;48.726;9.006;2023-06-10T02:51:45;6.72;;;4.78;;
9465;SDS011;4771;48.726;9.006;2023-06-10T02:54:12;6.05;;;4.47;;
9465;SDS011;4771;48.726;9.006;2023-06-10T02:56:39;7.15;;;4.43;;
9465;SDS011;4771;48.726;9.006;2023-06-10T02:59:06;5.18;;;4.68;;
9465;SDS011;4771;48.726;9.006;2023-06-10T03:01:33;5.82;;;5.22;;
9465;SDS011;4771;48.726;9.006;2023-06-10T03:04:03;5.45;;;4.78;;
9465;SDS011;4771;48.726;9.006;2023-06-10T03:06:30;4.78;;;4.30;;
9465;SDS011;4771;48.726;9.006;2023-06-10T03:08:58;5.55;;;4.93;;
9465;SDS011;4771;48.726;9.006;2023-06-10T03:11:25;4.85;;;4.20;;
9465;SDS011;4771;48.726;9.006;2023-06-10T03:13:52;5.50;;;4.70;;
9465;SDS011;4771;48.726;9.006;2023-06-10T03:16:20;6.53;;;4.60;;
9465;SDS011;4771;48.726;9.006;2023-06-10T03:18:47;5.32;;;4.78;;
9465;SDS011;4771;48.726;9.006;2023-06-10T03:21:16;5.55;;;5.00;;
9465;SDS011;4771;48.726;9.006;2023-06-10T03:23:43;5.60;;;5.00;;
9465;SDS011;4771;48.726;9.006;2023-06-10T03:26:10;6.35;;;4.63;;
9465;SDS011;4771;48.726;9.006;2023-06-10T03:28:39;5.47;;;4.97;;
9465;SDS011;4771;48.726;9.006;2023-06-10T03:31:06;5.55;;;5.05;;
9465;SDS011;4771;48.726;9.006;2023-06-10T03:33:33;4.95;;;4.43;;
9465;SDS011;4771;48.726;9.006;2023-06-10T03:36:01;4.93;;;4.43;;
9465;SDS011;4771;48.726;9.006;2023-06-10T03:38:29;4.88;;;4.38;;
9465;SDS011;4771;48.726;9.006;2023-06-10T03:40:56;5.25;;;4.57;;
9465;SDS011;4771;48.726;9.006;2023-06-10T03:43:22;5.50;;;4.97;;
9465;SDS011;4771;48.726;9.006;2023-06-10T03:45:49;4.57;;;4.10;;
9465;SDS011;4771;48.726;9.006;2023-06-10T03:48:17;4.63;;;4.22;;
9465;SDS011;4771;48.726;9.006;2023-06-10T03:50:44;6.93;;;4.80;;
9465;SDS011;4771;48.726;9.006;2023-06-10T03:53:12;5.78;;;4.95;;
9465;SDS011;4771;48.726;9.006;2023-06-10T03:55:41;4.72;;;4.28;;
9465;SDS011;4771;48.726;9.006;2023-06-10T03:58:07;5.75;;;4.57;;
9465;SDS011;4771;48.726;9.006;2023-06-10T04:00:34;6.20;;;4.50;;
9465;SDS011;4771;48.726;9.006;2023-06-10T04:03:06;5.63;;;4.50;;
9465;SDS011;4771;48.726;9.006;2023-06-10T04:05:34;5.32;;;4.60;;
9465;SDS011;4771;48.726;9.006;2023-06-10T04:08:01;4.40;;;4.00;;
9465;SDS011;4771;48.726;9.006;2023-06-10T04:10:28;4.50;;;4.00;;
9465;SDS011;4771;48.726;9.006;2023-06-10T04:12:56;5.07;;;4.40;;
9465;SDS011;4771;48.726;9.006;2023-06-10T04:15:23;4.47;;;4.07;;
9465;SDS011;4771;48.726;9.006;2023-06-10T04:17:49;6.38;;;4.32;;
9465;SDS011;4771;48.726;9.006;2023-06-10T04:20:17;5.30;;;4.30;;
9465;SDS011;4771;48.726;9.006;2023-06-10T04:22:44;8.02;;;4.32;;
9465;SDS011;4771;48.726;9.006;2023-06-10T04:25:11;5.22;;;4.50;;
9465;SDS011;4771;48.726;9.006;2023-06-10T04:27:38;5.25;;;4.45;;
9465;SDS011;4771;48.726;9.006;2023-06-10T04:30:07;6.07;;;4.82;;
9465;SDS011;4771;48.726;9.006;2023-06-10T04:32:34;5.13;;;4.63;;
9465;SDS011;4771;48.726;9.006;2023-06-10T04:35:01;4.40;;;3.90;;
9465;SDS011;4771;48.726;9.006;2023-06-10T04:37:28;4.88;;;4.40;;
9465;SDS011;4771;48.726;9.006;2023-06-10T04:39:55;5.45;;;4.35;;
9465;SDS011;4771;48.726;9.006;2023-06-10T04:42:22;4.30;;;3.90;;
9465;SDS011;4771;48.726;9.006;2023-06-10T04:44:49;4.70;;;4.30;;
9465;SDS011;4771;48.726;9.006;2023-06-10T04:47:17;4.72;;;3.90;;
9465;SDS011;4771;48.726;9.006;2023-06-10T04:49:44;4.80;;;4.38;;
9465;SDS011;4771;48.726;9.006;2023-06-10T04:52:10;4.70;;;4.30;;
9465;SDS011;4771;48.726;9.006;2023-06-10T04:54:39;6.80;;;4.55;;
9465;SDS011;4771;48.726;9.006;2023-06-10T04:57:06;4.90;;;4.40;;
9465;SDS011;4771;48.726;9.006;2023-06-10T04:59:33;4.32;;;3.92;;
9465;SDS011;4771;48.726;9.006;2023-06-10T05:02:02;4.57;;;4.13;;
9465;SDS011;4771;48.726;9.006;2023-06-10T05:04:31;5.50;;;4.30;;
9465;SDS011;4771;48.726;9.006;2023-06-10T05:06:58;4.20;;;3.80;;
9465;SDS011;4771;48.726;9.006;2023-06-10T05:09:25;4.50;;;4.10;;
9465;SDS011;4771;48.726;9.006;2023-06-10T05:11:52;4.28;;;3.88;;
9465;SDS011;4771;48.726;9.006;2023-06-10T05:14:19;4.82;;;4.32;;
9465;SDS011;4771;48.726;9.006;2023-06-10T05:16:46;4.25;;;3.83;;
9465;SDS011;4771;48.726;9.006;2023-06-10T05:19:13;4.22;;;3.83;;
9465;SDS011;4771;48.726;9.006;2023-06-10T05:21:42;4.38;;;3.97;;
9465;SDS011;4771;48.726;9.006;2023-06-10T05:24:10;4.60;;;4.20;;
9465;SDS011;4771;48.726;9.006;2023-06-10T05:26:37;4.47;;;3.70;;
9465;SDS011;4771;48.726;9.006;2023-06-10T05:29:04;5.05;;;4.40;;
9465;SDS011;4771;48.726;9.006;2023-06-10T05:31:31;4.00;;;3.65;;
9465;SDS011;4771;48.726;9.006;2023-06-10T05:33:58;4.32;;;3.92;;
9465;SDS011;4771;48.726;9.006;2023-06-10T05:36:24;4.55;;;4.15;;
9465;SDS011;4771;48.726;9.006;2023-06-10T05:38:53;5.22;;;4.50;;
9465;SDS011;4771;48.726;9.006;2023-06-10T05:41:20;4.68;;;4.28;;
9465;SDS011;4771;48.726;9.006;2023-06-10T05:43:48;4.65;;;4.18;;
9465;SDS011;4771;48.726;9.006;2023-06-10T05:46:15;4.47;;;4.03;;
9465;SDS011;4771;48.726;9.006;2023-06-10T05:48:42;4.68;;;4.20;;
9465;SDS011;4771;48.726;9.006;2023-06-10T05:51:08;4.72;;;4.32;;
9465;SDS011;4771;48.726;9.006;2023-06-10T05:53:36;4.53;;;4.10;;
9465;SDS011;4771;48.726;9.006;2023-06-10T05:56:04;4.65;;;4.20;;
9465;SDS011;4771;48.726;9.006;2023-06-10T05:58:31;4.93;;;4.38;;
9465;SDS011;4771;48.726;9.006;2023-06-10T06:00:58;5.35;;;4.70;;
9465;SDS011;4771;48.726;9.006;2023-06-10T06:03:25;4.68;;;4.28;;
9465;SDS011;4771;48.726;9.006;2023-06-10T06:05:53;5.43;;;4.32;;
9465;SDS011;4771;48.726;9.006;2023-06-10T06:08:20;5.70;;;4.75;;
9465;SDS011;4771;48.726;9.006;2023-06-10T06:10:47;4.68;;;4.22;;
9465;SDS011;4771;48.726;9.006;2023-06-10T06:13:15;5.38;;;4.47;;
9465;SDS011;4771;48.726;9.006;2023-06-10T06:15:42;5.85;;;5.00;;
9465;SDS011;4771;48.726;9.006;2023-06-10T06:18:09;5.10;;;4.60;;
9465;SDS011;4771;48.726;9.006;2023-06-10T06:20:36;4.38;;;3.97;;
9465;SDS011;4771;48.726;9.006;2023-06-10T06:23:03;5.57;;;4.95;;
9465;SDS011;4771;48.726;9.006;2023-06-10T06:25:30;4.70;;;4.07;;
9465;SDS011;4771;48.726;9.006;2023-06-10T06:27:57;5.32;;;4.57;;
9465;SDS011;4771;48.726;9.006;2023-06-10T06:30:25;5.13;;;4.35;;
9465;SDS011;4771;48.726;9.006;2023-06-10T06:32:52;5.00;;;4.47;;
9465;SDS011;4771;48.726;9.006;2023-06-10T06:35:18;4.90;;;4.40;;
9465;SDS011;4771;48.726;9.006;2023-06-10T06:37:45;5.32;;;4.60;;
9465;SDS011;4771;48.726;9.006;2023-06-10T06:40:12;5.40;;;4.70;;
9465;SDS011;4771;48.726;9.006;2023-06-10T06:42:39;5.20;;;4.13;;
9465;SDS011;4771;48.726;9.006;2023-06-10T06:45:07;4.90;;;4.25;;
9465;SDS011;4771;48.726;9.006;2023-06-10T06:47:35;4.60;;;4.20;;
9465;SDS011;4771;48.726;9.006;2023-06-10T06:50:02;5.40;;;4.60;;
9465;SDS011;4771;48.726;9.006;2023-06-10T06:52:29;4.95;;;4.45;;
9465;SDS011;4771;48.726;9.006;2023-06-10T06:54:56;4.70;;;4.30;;
9465;SDS011;4771;48.726;9.006;2023-06-10T06:57:23;4.53;;;4.13;;
9465;SDS011;4771;48.726;9.006;2023-06-10T06:59:50;4.78;;;4.35;;
9465;SDS011;4771;48.726;9.006;2023-06-10T07:02:17;4.82;;;4.32;;
9465;SDS011;4771;48.726;9.006;2023-06-10T07:04:46;6.65;;;3.90;;
9465;SDS011;4771;48.726;9.006;2023-06-10T07:07:14;4.60;;;4.00;;
9465;SDS011;4771;48.726;9.006;2023-06-10T07:09:41;4.78;;;4.28;;
9465;SDS011;4771;48.726;9.006;2023-06-10T07:12:09;4.57;;;4.10;;
9465;SDS011;4771;48.726;9.006;2023-06-10T07:14:36;5.78;;;4.63;;
9465;SDS011;4771;48.726;9.006;2023-06-10T07:17:03;4.65;;;4.25;;
9465;SDS011;4771;48.726;9.006;2023-06-10T07:19:29;5.47;;;4.22;;
9465;SDS011;4771;48.726;9.006;2023-06-10T07:21:58;4.78;;;4.28;;
9465;SDS011;4771;48.726;9.006;2023-06-10T07:24:25;4.65;;;4.18;;
9465;SDS011;4771;48.726;9.006;2023-06-10T07:26:51;5.95;;;4.53;;
9465;SDS011;4771;48.726;9.006;2023-06-10T07:29:18;5.25;;;4.38;;
9465;SDS011;4771;48.726;9.006;2023-06-10T07:31:45;4.65;;;4.25;;
9465;SDS011;4771;48.726;9.006;2023-06-10T07:34:12;5.20;;;3.75;;
9465;SDS011;4771;48.726;9.006;2023-06-10T07:36:39;5.68;;;4.00;;
9465;SDS011;4771;48.726;9.006;2023-06-10T07:39:07;4.30;;;3.90;;
9465;SDS011;4771;48.726;9.006;2023-06-10T07:41:35;5.97;;;4.00;;
9465;SDS011;4771;48.726;9.006;2023-06-10T07:44:02;4.95;;;4.43;;
9465;SDS011;4771;48.726;9.006;2023-06-10T07:46:29;3.90;;;3.60;;
9465;SDS011;4771;48.726;9.006;2023-06-10T07:48:56;4.50;;;4.05;;
9465;SDS011;4771;48.726;9.006;2023-06-10T07:51:22;4.70;;;3.80;;
9465;SDS011;4771;48.726;9.006;2023-06-10T07:53:49;4.07;;;3.67;;
9465;SDS011;4771;48.726;9.006;2023-06-10T07:56:18;4.20;;;3.80;;
9465;SDS011;4771;48.726;9.006;2023-06-10T07:58:46;5.60;;;4.05;;
9465;SDS011;4771;48.726;9.006;2023-06-10T08:01:16;4.50;;;3.92;;
9465;SDS011;4771;48.726;9.006;2023-06-10T08:03:49;5.57;;;4.15;;
9465;SDS011;4771;48.726;9.006;2023-06-10T08:06:16;4.53;;;3.88;;
9465;SDS011;4771;48.726;9.006;2023-06-10T08:08:43;5.15;;;3.95;;
9465;SDS011;4771;48.726;9.006;2023-06-10T08:11:10;5.30;;;4.20;;
9465;SDS011;4771;48.726;9.006;2023-06-10T08:13:39;8.43;;;4.70;;
9465;SDS011;4771;48.726;9.006;2023-06-10T08:16:06;5.35;;;4.35;;
9465;SDS011;4771;48.726;9.006;2023-06-10T08:18:33;6.15;;;4.38;;
9465;SDS011;4771;48.726;9.006;2023-06-10T08:21:00;5.68;;;4.05;;
9465;SDS011;4771;48.726;9.006;2023-06-10T08:23:27;4.20;;;3.80;;
9465;SDS011;4771;48.726;9.006;2023-06-10T08:25:53;5.80;;;4.47;;
9465;SDS011;4771;48.726;9.006;2023-06-10T08:28:20;4.93;;;4.20;;
9465;SDS011;4771;48.726;9.006;2023-06-10T08:30:49;6.28;;;4.28;;
9465;SDS011;4771;48.726;9.006;2023-06-10T08:33:15;4.80;;;4.40;;
9465;SDS011;4771;48.726;9.006;2023-06-10T08:35:42;4.97;;;4.20;;
9465;SDS011;4771;48.726;9.006;2023-06-10T08:38:09;4.88;;;4.20;;
9465;SDS011;4771;48.726;9.006;2023-06-10T08:40:36;4.18;;;3.78;;
9465;SDS011;4771;48.726;9.006;2023-06-10T08:43:05;8.65;;;4.47;;
9465;SDS011;4771;48.726;9.006;2023-06-10T08:45:34;4.50;;;4.00;;
9465;SDS011;4771;48.726;9.006;2023-06-10T08:48:03;12.55;;;4.72;;
9465;SDS011;4771;48.726;9.006;2023-06-10T08:50:32;4.97;;;4.47;;
9465;SDS011;4771;48.726;9.006;2023-06-10T08:53:02;4.97;;;3.58;;
9465;SDS011;4771;48.726;9.006;2023-06-10T08:55:32;5.88;;;4.20;;
9465;SDS011;4771;48.726;9.006;2023-06-10T08:58:01;7.70;;;4.22;;
9465;SDS011;4771;48.726;9.006;2023-06-10T09:00:29;4.60;;;4.05;;
9465;SDS011;4771;48.726;9.006;2023-06-10T09:02:57;4.70;;;4.30;;
9465;SDS011;4771;48.726;9.006;2023-06-10T09:05:26;4.70;;;4.25;;
9465;SDS011;4771;48.726;9.006;2023-06-10T09:07:54;4.88;;;4.10;;
9465;SDS011;4771;48.726;9.006;2023-06-10T09:10:23;8.25;;;4.00;;
9465;SDS011;4771;48.726;9.006;2023-06-10T09:12:51;5.47;;;4.30;;
9465;SDS011;4771;48.726;9.006;2023-06-10T09:15:18;4.50;;;3.95;;
9465;SDS011;4771;48.726;9.006;2023-06-10T09:17:45;4.13;;;3.70;;
9465;SDS011;4771;48.726;9.006;2023-06-10T09:20:12;5.20;;;4.00;;
9465;SDS011;4771;48.726;9.006;2023-06-10T09:22:40;5.40;;;4.00;;
9465;SDS011;4771;48.726;9.006;2023-06-10T09:25:08;4.78;;;4.05;;
9465;SDS011;4771;48.726;9.006;2023-06-10T09:27:45;7.30;;;3.95;;
9465;SDS011;4771;48.726;9.006;2023-06-10T09:30:24;5.53;;;3.92;;
9465;SDS011;4771;48.726;9.006;2023-06-10T09:32:52;4.25;;;3.67;;
9465;SDS011;4771;48.726;9.006;2023-06-10T09:35:21;5.05;;;3.53;;
9465;SDS011;4771;48.726;9.006;2023-06-10T09:37:51;4.55;;;4.15;;
9465;SDS011;4771;48.726;9.006;2023-06-10T09:40:18;7.13;;;4.65;;
9465;SDS011;4771;48.726;9.006;2023-06-10T09:42:45;4.13;;;3.58;;
9465;SDS011;4771;48.726;9.006;2023-06-10T09:45:14;6.45;;;3.80;;
9465;SDS011;4771;48.726;9.006;2023-06-10T09:47:41;4.40;;;4.00;;
9465;SDS011;4771;48.726;9.006;2023-06-10T09:50:08;4.30;;;3.90;;
9465;SDS011;4771;48.726;9.006;2023-06-10T09:52:36;3.90;;;3.50;;
9465;SDS011;4771;48.726;9.006;2023-06-10T09:55:07;6.63;;;4.45;;
9465;SDS011;4771;48.726;9.006;2023-06-10T09:57:35;5.70;;;3.63;;
9465;SDS011;4771;48.726;9.006;2023-06-10T10:00:04;4.00;;;3.70;;
9465;SDS011;4771;48.726;9.006;2023-06-10T10:02:33;4.80;;;3.80;;
9465;SDS011;4771;48.726;9.006;2023-06-10T10:05:12;5.15;;;3.55;;
9465;SDS011;4771;48.726;9.006;2023-06-10T10:07:39;4.35;;;3.95;;
9465;SDS011;4771;48.726;9.006;2023-06-10T10:10:08;3.78;;;3.47;;
9465;SDS011;4771;48.726;9.006;2023-06-10T10:12:36;5.40;;;4.07;;
9465;SDS011;4771;48.726;9.006;2023-06-10T10:15:05;4.20;;;3.53;;
9465;SDS011;4771;48.726;9.006;2023-06-10T10:17:34;3.90;;;3.45;;
9465;SDS011;4771;48.726;9.006;2023-06-10T10:20:04;8.90;;;3.70;;
9465;SDS011;4771;48.726;9.006;2023-06-10T10:22:52;7.45;;;3.88;;
9465;SDS011;4771;48.726;9.006;2023-06-10T10:25:25;4.25;;;3.10;;
9465;SDS011;4771;48.726;9.006;2023-06-10T10:27:55;3.70;;;3.40;;
9465;SDS011;4771;48.726;9.006;2023-06-10T10:30:24;4.18;;;3.30;;
9465;SDS011;4771;48.726;9.006;2023-06-10T10:32:55;3.78;;;3.05;;
9465;SDS011;4771;48.726;9.006;2023-06-10T10:35:24;6.10;;;3.53;;
9465;SDS011;4771;48.726;9.006;2023-06-10T10:37:52;3.70;;;3.30;;
9465;SDS011;4771;48.726;9.006;2023-06-10T10:40:20;5.32;;;3.20;;
9465;SDS011;4771;48.726;9.006;2023-06-10T10:42:49;7.82;;;3.40;;
9465;SDS011;4771;48.726;9.006;2023-06-10T10:45:17;4.88;;;3.22;;
9465;SDS011;4771;48.726;9.006;2023-06-10T10:47:45;6.07;;;2.95;;
9465;SDS011;4771;48.726;9.006;2023-06-10T10:50:13;3.40;;;3.10;;
9465;SDS011;4771;48.726;9.006;2023-06-10T10:52:48;7.32;;;3.15;;
9465;SDS011;4771;48.726;9.006;2023-06-10T10:55:18;4.68;;;3.40;;
9465;SDS011;4771;48.726;9.006;2023-06-10T10:57:54;4.55;;;3.38;;
9465;SDS011;4771;48.726;9.006;2023-06-10T11:00:28;3.63;;;3.30;;
9465;SDS011;4771;48.726;9.006;2023-06-10T11:02:59;4.03;;;3.35;;
9465;SDS011;4771;48.726;9.006;2023-06-10T11:05:31;3.88;;;3.08;;
9465;SDS011;4771;48.726;9.006;2023-06-10T11:08:02;4.93;;;3.22;;
9465;SDS011;4771;48.726;9.006;2023-06-10T11:10:30;4.47;;;3.30;;
9465;SDS011;4771;48.726;9.006;2023-06-10T11:12:59;3.80;;;3.42;;
9465;SDS011;4771;48.726;9.006;2023-06-10T11:15:26;5.13;;;3.60;;
9465;SDS011;4771;48.726;9.006;2023-06-10T11:18:12;3.75;;;3.30;;
9465;SDS011;4771;48.726;9.006;2023-06-10T11:20:44;3.65;;;3.15;;
9465;SDS011;4771;48.726;9.006;2023-06-10T11:23:30;3.83;;;3.45;;
9465;SDS011;4771;48.726;9.006;2023-06-10T11:26:17;4.25;;;3.42;;
9465;SDS011;4771;48.726;9.006;2023-06-10T11:29:05;3.63;;;3.33;;
9465;SDS011;4771;48.726;9.006;2023-06-10T11:31:39;4.05;;;3.20;;
9465;SDS011;4771;48.726;9.006;2023-06-10T11:34:08;8.25;;;3.80;;
9465;SDS011;4771;48.726;9.006;2023-06-10T11:36:36;6.20;;;3.45;;
9465;SDS011;4771;48.726;9.006;2023-06-10T11:39:07;4.35;;;3.13;;
9465;SDS011;4771;48.726;9.006;2023-06-10T11:41:35;4.57;;;3.55;;
9465;SDS011;4771;48.726;9.006;2023-06-10T11:44:03;4.45;;;3.47;;
9465;SDS011;4771;48.726;9.006;2023-06-10T11:46:34;4.10;;;3.70;;
9465;SDS011;4771;48.726;9.006;2023-06-10T11:49:01;4.60;;;3.60;;
9465;SDS011;4771;48.726;9.006;2023-06-10T11:51:32;3.83;;;3.53;;
9465;SDS011;4771;48.726;9.006;2023-06-10T11:54:00;4.85;;;3.30;;
9465;SDS011;4771;48.726;9.006;2023-06-10T11:56:28;23.08;;;4.88;;
9465;SDS011;4771;48.726;9.006;2023-06-10T11:58:56;3.90;;;3.50;;
9465;SDS011;4771;48.726;9.006;2023-06-10T12:01:27;4.95;;;3.50;;
9465;SDS011;4771;48.726;9.006;2023-06-10T12:04:00;7.68;;;3.70;;
9465;SDS011;4771;48.726;9.006;2023-06-10T12:06:37;3.55;;;3.25;;
9465;SDS011;4771;48.726;9.006;2023-06-10T12:09:04;5.53;;;3.25;;
9465;SDS011;4771;48.726;9.006;2023-06-10T12:11:32;3.55;;;3.25;;
9465;SDS011;4771;48.726;9.006;2023-06-10T12:13:59;4.07;;;3.70;;
9465;SDS011;4771;48.726;9.006;2023-06-10T12:16:29;4.43;;;3.15;;
9465;SDS011;4771;48.726;9.006;2023-06-10T12:19:00;3.78;;;3.33;;
9465;SDS011;4771;48.726;9.006;2023-06-10T12:21:29;4.03;;;3.55;;
9465;SDS011;4771;48.726;9.006;2023-06-10T12:24:00;4.55;;;3.65;;
9465;SDS011;4771;48.726;9.006;2023-06-10T12:26:36;6.47;;;3.58;;
9465;SDS011;4771;48.726;9.006;2023-06-10T12:29:20;3.47;;;3.17;;
9465;SDS011;4771;48.726;9.006;2023-06-10T12:31:54;4.15;;;3.63;;
9465;SDS011;4771;48.726;9.006;2023-06-10T12:34:32;3.83;;;3.42;;
9465;SDS011;4771;48.726;9.006;2023-06-10T12:37:01;5.38;;;3.45;;
9465;SDS011;4771;48.726;9.006;2023-06-10T12:39:29;4.60;;;3.53;;
9465;SDS011;4771;48.726;9.006;2023-06-10T12:41:56;3.92;;;3.60;;
9465;SDS011;4771;48.726;9.006;2023-06-10T12:44:33;3.90;;;3.25;;
9465;SDS011;4771;48.726;9.006;2023-06-10T12:47:08;4.30;;;3.65;;
9465;SDS011;4771;48.726;9.006;2023-06-10T12:49:37;4.00;;;3.60;;
9465;SDS011;4771;48.726;9.006;2023-06-10T12:52:04;3.50;;;3.20;;
9465;SDS011;4771;48.726;9.006;2023-06-10T12:54:32;4.47;;;3.88;;
9465;SDS011;4771;48.726;9.006;2023-06-10T12:56:59;6.03;;;3.90;;
9465;SDS011;4771;48.726;9.006;2023-06-10T12:59:26;3.47;;;3.17;;
9465;SDS011;4771;48.726;9.006;2023-06-10T13:01:54;7.93;;;3.35;;
9465;SDS011;4771;48.726;9.006;2023-06-10T13:04:22;3.30;;;3.00;;
9465;SDS011;4771;48.726;9.006;2023-06-10T13:06:49;6.22;;;3.25;;
9465;SDS011;4771;48.726;9.006;2023-06-10T13:09:16;3.33;;;3.03;;
9465;SDS011;4771;48.726;9.006;2023-06-10T13:11:43;4.70;;;3.08;;
9465;SDS011;4771;48.726;9.006;2023-06-10T13:14:10;3.28;;;2.95;;
9465;SDS011;4771;48.726;9.006;2023-06-10T13:16:37;3.70;;;3.13;;
9465;SDS011;4771;48.726;9.006;2023-06-10T13:19:04;3.60;;;3.30;;
9465;SDS011;4771;48.726;9.006;2023-06-10T13:21:33;3.17;;;2.88;;
9465;SDS011;4771;48.726;9.006;2023-06-10T13:24:00;3.88;;;3.40;;
9465;SDS011;4771;48.726;9.006;2023-06-10T13:26:27;5.25;;;2.95;;
9465;SDS011;4771;48.726;9.006;2023-06-10T13:28:54;4.70;;;3.40;;
9465;SDS011;4771;48.726;9.006;2023-06-10T13:31:21;4.50;;;3.22;;
9465;SDS011;4771;48.726;9.006;2023-06-10T13:33:47;3.47;;;3.13;;
9465;SDS011;4771;48.726;9.006;2023-06-10T13:36:14;3.90;;;2.90;;
9465;SDS011;4771;48.726;9.006;2023-06-10T13:38:43;3.40;;;3.10;;
9465;SDS011;4771;48.726;9.006;2023-06-10T13:41:10;3.80;;;3.42;;
9465;SDS011;4771;48.726;9.006;2023-06-10T13:43:37;4.63;;;3.38;;
9465;SDS011;4771;48.726;9.006;2023-06-10T13:46:04;3.53;;;3.22;;
9465;SDS011;4771;48.726;9.006;2023-06-10T13:48:31;3.67;;;2.70;;
9465;SDS011;4771;48.726;9.006;2023-06-10T13:50:58;3.35;;;3.05;;
9465;SDS011;4771;48.726;9.006;2023-06-10T13:53:25;4.13;;;2.65;;
9465;SDS011;4771;48.726;9.006;2023-06-10T13:55:53;3.25;;;2.95;;
9465;SDS011;4771;48.726;9.006;2023-06-10T13:58:20;3.20;;;2.80;;
9465;SDS011;4771;48.726;9.006;2023-06-10T14:00:47;5.07;;;2.80;;
9465;SDS011;4771;48.726;9.006;2023-06-10T14:03:14;4.45;;;2.65;;
9465;SDS011;4771;48.726;9.006;2023-06-10T14:05:41;3.70;;;2.70;;
9465;SDS011;4771;48.726;9.006;2023-06-10T14:08:08;3.60;;;2.63;;
9465;SDS011;4771;48.726;9.006;2023-06-10T14:10:35;2.88;;;2.50;;
9465;SDS011;4771;48.726;9.006;2023-06-10T14:13:03;4.40;;;3.03;;
9465;SDS011;4771;48.726;9.006;2023-06-10T14:15:30;4.70;;;3.40;;
9465;SDS011;4771;48.726;9.006;2023-06-10T14:17:57;3.78;;;3.03;;
9465;SDS011;4771;48.726;9.006;2023-06-10T14:20:24;3.38;;;3.03;;
9465;SDS011;4771;48.726;9.006;2023-06-10T14:22:51;3.10;;;2.70;;
9465;SDS011;4771;48.726;9.006;2023-06-10T14:25:18;3.08;;;2.78;;
9465;SDS011;4771;48.726;9.006;2023-06-10T14:27:45;3.33;;;2.67;;
9465;SDS011;4771;48.726;9.006;2023-06-10T14:30:14;2.83;;;2.58;;
9465;SDS011;4771;48.726;9.006;2023-06-10T14:32:41;3.28;;;2.70;;
9465;SDS011;4771;48.726;9.006;2023-06-10T14:35:08;3.28;;;2.92;;
9465;SDS011;4771;48.726;9.006;2023-06-10T14:37:35;3.13;;;2.67;;
9465;SDS011;4771;48.726;9.006;2023-06-10T14:40:03;4.10;;;2.97;;
9465;SDS011;4771;48.726;9.006;2023-06-10T14:42:30;3.00;;;2.72;;
9465;SDS011;4771;48.726;9.006;2023-06-10T14:44:58;4.45;;;3.00;;
9465;SDS011;4771;48.726;9.006;2023-06-10T14:47:26;3.25;;;2.95;;
9465;SDS011;4771;48.726;9.006;2023-06-10T14:49:53;3.13;;;2.55;;
9465;SDS011;4771;48.726;9.006;2023-06-10T14:52:20;3.92;;;2.80;;
9465;SDS011;4771;48.726;9.006;2023-06-10T14:54:46;2.90;;;2.63;;
9465;SDS011;4771;48.726;9.006;2023-06-10T14:57:13;4.28;;;2.95;;
9465;SDS011;4771;48.726;9.006;2023-06-10T14:59:40;2.53;;;2.33;;
9465;SDS011;4771;48.726;9.006;2023-06-10T15:02:07;9.55;;;3.42;;
9465;SDS011;4771;48.726;9.006;2023-06-10T15:04:35;4.22;;;2.70;;
9465;SDS011;4771;48.726;9.006;2023-06-10T15:07:02;5.65;;;2.78;;
9465;SDS011;4771;48.726;9.006;2023-06-10T15:09:29;3.05;;;2.60;;
9465;SDS011;4771;48.726;9.006;2023-06-10T15:11:57;3.45;;;2.88;;
9465;SDS011;4771;48.726;9.006;2023-06-10T15:14:24;5.22;;;2.92;;
9465;SDS011;4771;48.726;9.006;2023-06-10T15:16:51;4.03;;;3.08;;
9465;SDS011;4771;48.726;9.006;2023-06-10T15:19:18;4.97;;;2.88;;
9465;SDS011;4771;48.726;9.006;2023-06-10T15:21:46;2.97;;;2.72;;